Time;durP1;ratioP1;P1;durP2;ratioP2;P2;SDS_P1;SDS_P2;PMS_P1;PMS_P2;Temp;Humidity;BMP_temperature;BMP_pressure;BME280_temperature;BME280_humidity;BME280_pressure;Samples;Min_cycle;Max_cycle;Signal;HPM_P1;HPM_P2
2022/01/23 00:02:16;;;;;;;8.07;2.80;;;6.30;99.90;;;;;;4951722;28;20038;-68
2022/01/23 00:04:42;;;;;;;6.90;2.50;;;6.30;99.90;;;;;;4950314;28;20078;-67
2022/01/23 00:07:10;;;;;;;7.47;3.00;;;6.30;99.90;;;;;;4954730;28;20117;-68
2022/01/23 00:09:37;;;;;;;8.63;2.55;;;6.30;99.90;;;;;;4953314;28;20146;-67
2022/01/23 00:12:09;;;;;;;12.13;3.33;;;6.30;99.90;;;;;;4953854;28;20047;-68
2022/01/23 00:17:23;;;;;;;7.40;3.30;;;6.30;99.90;;;;;;4948631;28;20038;-67
2022/01/23 00:19:54;;;;;;;9.65;2.58;;;6.30;99.90;;;;;;4949699;28;20559;-68
2022/01/23 00:22:33;;;;;;;12.65;2.95;;;6.30;99.90;;;;;;4954955;28;20157;-68
2022/01/23 00:30:31;;;;;;;6.70;2.53;;;6.30;99.90;;;;;;4954883;28;20609;-68
2022/01/23 00:32:59;;;;;;;14.25;2.92;;;6.30;99.90;;;;;;4944128;28;20089;-68
2022/01/23 00:35:26;;;;;;;10.10;2.97;;;6.30;99.90;;;;;;4959494;28;20038;-67
2022/01/23 00:37:54;;;;;;;11.40;3.35;;;6.30;99.90;;;;;;4946086;28;20054;-67
2022/01/23 00:40:21;;;;;;;7.35;2.80;;;6.30;99.90;;;;;;4967326;28;20034;-68
2022/01/23 00:42:48;;;;;;;11.57;3.17;;;6.30;99.90;;;;;;4937631;28;20047;-67
2022/01/23 00:48:11;;;;;;;7.57;3.10;;;6.30;99.90;;;;;;4899277;28;20052;-68
2022/01/23 00:50:43;;;;;;;11.20;2.70;;;6.30;99.90;;;;;;4956851;28;20035;-68
2022/01/23 00:53:10;;;;;;;9.32;3.00;;;6.30;99.90;;;;;;4954399;28;20499;-68
2022/01/23 00:55:38;;;;;;;12.35;3.53;;;6.30;99.90;;;;;;4954023;28;20047;-68
2022/01/23 00:58:03;;;;;;;14.23;3.88;;;6.40;99.90;;;;;;4933238;28;20043;-68
2022/01/23 01:00:29;;;;;;;11.77;3.63;;;6.30;99.90;;;;;;4962163;28;20054;-68
2022/01/23 01:02:55;;;;;;;9.32;4.47;;;6.30;99.90;;;;;;4963306;28;20483;-68
2022/01/23 01:05:21;;;;;;;12.20;3.00;;;6.30;99.90;;;;;;4958661;28;20059;-68
2022/01/23 01:07:47;;;;;;;9.40;3.80;;;6.30;99.90;;;;;;4962264;28;20039;-67
2022/01/23 01:10:21;;;;;;;10.00;4.10;;;6.30;99.90;;;;;;4950682;28;20232;-68
2022/01/23 01:12:49;;;;;;;10.50;3.83;;;6.30;99.90;;;;;;4940837;28;20413;-68
2022/01/23 01:33:58;;;;;;;6.90;3.60;;;6.20;99.90;;;;;;4955560;28;20051;-67
2022/01/23 01:36:46;;;;;;;10.98;4.18;;;6.20;99.90;;;;;;4956453;28;20058;-67
2022/01/23 01:39:12;;;;;;;7.60;4.00;;;6.20;99.90;;;;;;4967528;28;20074;-67
2022/01/23 01:41:40;;;;;;;10.50;4.07;;;6.20;99.90;;;;;;4948091;28;20046;-67
2022/01/23 01:44:06;;;;;;;9.18;3.58;;;6.20;99.90;;;;;;4963039;28;20116;-67
2022/01/23 01:46:32;;;;;;;8.27;3.33;;;6.20;99.90;;;;;;4956943;28;20424;-68
2022/01/23 01:48:58;;;;;;;11.03;3.43;;;6.20;99.90;;;;;;4951086;28;20043;-67
2022/01/23 01:51:24;;;;;;;8.73;4.27;;;6.20;99.90;;;;;;4939893;28;20075;-67
2022/01/23 01:53:55;;;;;;;;;;;6.20;99.90;;;;;;4950738;28;20302;-70
2022/01/23 01:56:21;;;;;;;10.15;3.45;;;6.20;99.90;;;;;;4966694;28;19918;-67
2022/01/23 02:09:23;;;;;;;6.55;3.08;;;6.10;99.90;;;;;;4963374;28;20042;-67
2022/01/23 02:17:13;;;;;;;8.30;3.45;;;6.20;99.90;;;;;;4960802;28;20503;-67
2022/01/23 02:25:16;;;;;;;7.38;3.60;;;6.20;99.90;;;;;;4964199;28;20061;-70
2022/01/23 02:54:57;;;;;;;9.20;3.40;;;6.10;99.90;;;;;;4961592;28;20495;-68
2022/01/23 02:57:40;;;;;;;9.60;3.28;;;6.10;99.90;;;;;;4957915;28;20504;-68
2022/01/23 03:00:14;;;;;;;8.15;3.00;;;6.10;99.90;;;;;;5049314;23;20052;-67
2022/01/23 03:02:46;;;;;;;5.25;3.22;;;6.10;99.90;;;;;;5021529;28;20045;-68
2022/01/23 03:05:22;;;;;;;8.32;2.88;;;6.10;99.90;;;;;;5014591;28;20048;-67
2022/01/23 03:07:56;;;;;;;7.32;3.40;;;6.10;99.90;;;;;;5030862;28;20076;-67
2022/01/23 03:10:28;;;;;;;7.05;2.58;;;6.10;99.90;;;;;;5017649;28;20536;-67
2022/01/23 03:26:55;;;;;;;8.02;2.42;;;6.00;99.90;;;;;;5015221;28;20048;-67
2022/01/23 03:29:17;;;;;;;8.68;3.60;;;6.10;99.90;;;;;;5021268;28;20045;-67
2022/01/23 03:32:19;;;;;;;10.00;3.15;;;6.00;99.90;;;;;;5012895;28;20061;-68
2022/01/23 03:34:28;;;;;;;11.18;3.08;;;6.10;99.90;;;;;;5030209;28;20088;-67
2022/01/23 03:36:56;;;;;;;9.83;3.47;;;6.00;99.90;;;;;;5016182;28;20061;-67
2022/01/23 03:39:22;;;;;;;7.32;2.83;;;6.00;99.90;;;;;;5019406;28;20452;-68
2022/01/23 03:41:48;;;;;;;5.70;2.92;;;6.00;99.90;;;;;;5019590;28;20041;-67
2022/01/23 03:44:16;;;;;;;7.50;3.50;;;6.00;99.90;;;;;;5004868;28;20038;-67
2022/01/23 03:51:55;;;;;;;5.57;2.47;;;6.00;99.90;;;;;;5018879;28;20737;-67
2022/01/23 03:54:23;;;;;;;9.37;2.93;;;6.00;99.90;;;;;;5009589;28;20070;-68
2022/01/23 03:56:48;;;;;;;6.75;2.67;;;6.00;99.90;;;;;;5013678;28;20036;-68
2022/01/23 03:59:14;;;;;;;9.10;3.23;;;6.00;99.90;;;;;;5021101;28;20036;-67
2022/01/23 04:01:39;;;;;;;5.63;2.63;;;6.00;99.90;;;;;;5016607;28;20129;-67
2022/01/23 04:04:16;;;;;;;5.67;2.83;;;6.00;99.90;;;;;;5020167;28;20080;-67
2022/01/23 04:06:42;;;;;;;10.38;4.03;;;6.00;99.90;;;;;;5029339;28;20051;-67
2022/01/23 04:09:07;;;;;;;10.60;2.90;;;6.00;99.90;;;;;;5019849;28;20033;-68
2022/01/23 04:11:33;;;;;;;10.13;2.60;;;6.00;99.90;;;;;;5020520;28;20132;-68
2022/01/23 04:14:05;;;;;;;6.33;2.40;;;5.90;99.90;;;;;;5031376;28;20267;-67
2022/01/23 04:33:41;;;;;;;7.63;2.80;;;5.90;99.90;;;;;;5019037;28;20603;-68
2022/01/23 05:00:52;;;;;;;10.05;3.15;;;5.90;99.90;;;;;;5020664;28;20042;-67
2022/01/23 05:05:50;;;;;;;5.57;2.80;;;5.90;99.90;;;;;;5013473;28;20076;-67
2022/01/23 05:08:18;;;;;;;4.18;2.30;;;5.90;99.90;;;;;;5014525;28;20383;-67
2022/01/23 05:10:45;;;;;;;5.60;2.80;;;5.90;99.90;;;;;;5016268;28;20038;-67
2022/01/23 05:13:11;;;;;;;9.85;3.00;;;5.90;99.90;;;;;;5017058;28;20087;-67
2022/01/23 05:15:37;;;;;;;10.77;3.07;;;5.90;99.90;;;;;;5024012;28;20041;-67
2022/01/23 05:18:03;;;;;;;11.50;2.20;;;5.90;99.90;;;;;;5020663;28;20040;-67
2022/01/23 05:20:29;;;;;;;7.70;2.53;;;5.80;99.90;;;;;;5020322;28;20132;-67
2022/01/23 05:23:02;;;;;;;5.47;2.63;;;5.80;99.90;;;;;;5019237;28;20500;-67
2022/01/23 05:25:30;;;;;;;7.13;2.60;;;5.80;99.90;;;;;;5020260;28;20446;-68
2022/01/23 05:27:56;;;;;;;8.13;3.00;;;5.80;99.90;;;;;;5018067;28;20042;-67
2022/01/23 05:30:22;;;;;;;9.03;2.37;;;5.80;99.90;;;;;;5011603;28;20045;-67
2022/01/23 05:32:48;;;;;;;6.10;2.67;;;5.80;99.90;;;;;;5013278;28;20037;-67
2022/01/23 05:35:22;;;;;;;8.63;2.50;;;5.80;99.90;;;;;;5007468;28;20037;-67
2022/01/23 05:37:48;;;;;;;5.15;2.60;;;5.80;99.90;;;;;;5034912;28;20053;-67
2022/01/23 05:40:16;;;;;;;5.35;2.22;;;5.80;99.90;;;;;;5020479;28;20033;-67
2022/01/23 05:42:42;;;;;;;6.13;2.30;;;5.80;99.90;;;;;;5014414;28;20053;-67
2022/01/23 05:45:09;;;;;;;4.15;2.22;;;5.80;99.90;;;;;;5020257;28;20037;-67
2022/01/23 05:47:36;;;;;;;5.07;2.63;;;5.80;99.90;;;;;;5013716;28;20593;-67
2022/01/23 05:50:03;;;;;;;4.72;2.20;;;5.80;99.90;;;;;;5019288;28;20126;-67
2022/01/23 05:52:31;;;;;;;9.48;2.70;;;5.80;99.90;;;;;;5013013;28;20033;-67
2022/01/23 05:54:57;;;;;;;4.43;2.20;;;5.80;99.90;;;;;;5019108;28;20045;-68
2022/01/23 05:57:22;;;;;;;3.55;2.28;;;5.80;99.90;;;;;;5020401;28;20036;-67
2022/01/23 05:59:48;;;;;;;5.00;2.50;;;5.80;99.90;;;;;;5020050;28;20474;-67
2022/01/23 06:02:13;;;;;;;5.13;2.60;;;5.80;99.90;;;;;;5021910;28;20048;-67
2022/01/23 06:04:41;;;;;;;8.37;2.87;;;5.80;99.90;;;;;;5018247;28;20045;-67
2022/01/23 06:07:07;;;;;;;8.65;2.90;;;5.80;99.90;;;;;;5022826;28;20438;-67
2022/01/23 06:09:36;;;;;;;9.13;2.60;;;5.80;99.90;;;;;;5025581;28;20125;-68
2022/01/23 06:12:02;;;;;;;10.93;2.38;;;5.80;99.90;;;;;;5017010;28;20061;-67
2022/01/23 06:14:27;;;;;;;4.53;2.43;;;5.80;99.90;;;;;;5017377;28;20482;-67
2022/01/23 06:16:53;;;;;;;6.60;2.33;;;5.80;99.90;;;;;;5020039;28;20081;-68
2022/01/23 06:19:18;;;;;;;4.77;2.57;;;5.70;99.90;;;;;;5021036;28;20071;-67
2022/01/23 06:21:44;;;;;;;5.23;2.13;;;5.80;99.90;;;;;;5010975;28;20104;-68
2022/01/23 06:24:15;;;;;;;2.87;1.60;;;5.70;99.90;;;;;;5018715;28;20044;-67
2022/01/23 06:26:52;;;;;;;4.70;2.05;;;5.70;99.90;;;;;;5022875;28;20431;-67
2022/01/23 06:29:18;;;;;;;;;;;5.80;99.90;;;;;;5019097;28;20147;-67
2022/01/23 06:31:48;;;;;;;3.67;1.85;;;5.80;99.90;;;;;;5018296;28;19925;-67
2022/01/23 06:34:17;;;;;;;4.18;2.47;;;5.70;99.90;;;;;;5016688;28;20044;-67
2022/01/23 06:36:49;;;;;;;3.50;1.80;;;5.70;99.90;;;;;;5016227;28;20157;-67
2022/01/23 06:39:15;;;;;;;3.95;1.90;;;5.80;99.90;;;;;;5019661;28;20123;-67
2022/01/23 06:41:43;;;;;;;2.78;1.40;;;5.70;99.90;;;;;;5017305;28;20046;-67
2022/01/23 06:44:10;;;;;;;3.73;1.70;;;5.70;99.90;;;;;;5014660;28;20535;-67
2022/01/23 06:46:38;;;;;;;3.90;1.70;;;5.80;99.90;;;;;;5025316;28;20052;-67
2022/01/23 06:49:04;;;;;;;3.58;1.48;;;5.70;99.90;;;;;;5014589;28;20033;-68
2022/01/23 06:51:29;;;;;;;3.60;1.73;;;5.70;99.90;;;;;;5026148;28;20052;-68
2022/01/23 06:53:55;;;;;;;3.00;1.53;;;5.80;99.90;;;;;;5029349;28;20073;-68
2022/01/23 06:56:21;;;;;;;6.17;1.73;;;5.80;99.90;;;;;;5024638;28;20457;-67
2022/01/23 06:58:46;;;;;;;5.82;1.77;;;5.80;99.90;;;;;;5031230;28;20159;-67
2022/01/23 07:01:12;;;;;;;4.33;1.53;;;5.80;99.90;;;;;;5014410;28;20540;-67
2022/01/23 07:03:38;;;;;;;2.67;1.43;;;5.80;99.90;;;;;;5011999;28;20064;-67
2022/01/23 07:06:04;;;;;;;3.63;1.63;;;5.80;99.90;;;;;;5023973;28;20401;-68
2022/01/23 07:08:31;;;;;;;3.38;2.08;;;5.80;99.90;;;;;;5019732;28;20529;-67
2022/01/23 07:10:57;;;;;;;4.38;1.70;;;5.80;99.90;;;;;;5013294;28;20073;-67
2022/01/23 07:13:23;;;;;;;3.53;1.75;;;5.80;99.90;;;;;;5015912;28;20055;-67
2022/01/23 07:15:49;;;;;;;3.38;1.80;;;5.80;99.90;;;;;;5025921;28;20072;-68
2022/01/23 07:18:15;;;;;;;3.53;1.60;;;5.80;99.90;;;;;;5016980;28;20395;-67
2022/01/23 07:20:42;;;;;;;4.25;1.67;;;5.80;99.90;;;;;;5022294;28;20049;-67
2022/01/23 07:23:08;;;;;;;2.78;1.55;;;5.80;99.90;;;;;;5020527;28;20463;-67
2022/01/23 07:25:34;;;;;;;3.07;1.43;;;5.80;99.90;;;;;;5018981;28;20180;-67
2022/01/23 07:28:01;;;;;;;3.60;1.50;;;5.80;99.90;;;;;;5020852;28;20041;-67
2022/01/23 07:32:53;;;;;;;5.00;1.43;;;5.80;99.90;;;;;;5019667;28;20049;-67
2022/01/23 07:35:18;;;;;;;3.28;1.50;;;5.80;99.90;;;;;;5023472;28;20041;-67
2022/01/23 07:37:44;;;;;;;4.73;1.17;;;5.80;99.90;;;;;;5008295;28;20034;-67
2022/01/23 07:40:10;;;;;;;3.70;1.27;;;5.80;99.90;;;;;;5018087;28;20044;-67
2022/01/23 07:42:36;;;;;;;2.95;1.60;;;5.80;99.90;;;;;;5020326;28;20080;-67
2022/01/23 07:45:03;;;;;;;6.00;1.40;;;5.80;99.90;;;;;;5016473;28;20426;-67
2022/01/23 07:47:28;;;;;;;3.75;1.75;;;5.80;99.90;;;;;;5022514;28;20043;-67
2022/01/23 07:49:54;;;;;;;3.37;1.70;;;5.80;99.90;;;;;;5015965;28;20042;-67
2022/01/23 07:52:19;;;;;;;4.37;2.03;;;5.80;99.90;;;;;;5008258;28;20419;-67
2022/01/23 07:54:48;;;;;;;3.05;1.70;;;5.80;99.90;;;;;;5017767;28;20117;-67
2022/01/23 07:57:13;;;;;;;4.63;2.13;;;5.90;99.90;;;;;;5021068;28;20129;-67
2022/01/23 07:59:39;;;;;;;3.47;1.80;;;5.80;99.90;;;;;;5014831;28;20074;-67
2022/01/23 08:02:05;;;;;;;4.50;1.90;;;5.90;99.90;;;;;;5013794;28;20049;-68
2022/01/23 08:04:30;;;;;;;5.27;1.90;;;5.90;99.90;;;;;;5014077;28;20038;-68
2022/01/23 08:09:40;;;;;;;5.75;1.80;;;5.90;99.90;;;;;;5014654;28;20046;-68
2022/01/23 08:12:06;;;;;;;5.53;2.23;;;5.90;99.90;;;;;;5024995;28;20036;-68
2022/01/23 08:14:34;;;;;;;4.65;1.95;;;5.90;99.90;;;;;;5006805;28;20133;-68
2022/01/23 08:17:00;;;;;;;2.85;1.73;;;5.90;99.90;;;;;;5012527;28;20469;-67
2022/01/23 08:19:25;;;;;;;5.70;2.23;;;5.90;99.90;;;;;;5017543;28;20336;-67
2022/01/23 08:21:51;;;;;;;4.07;1.97;;;5.90;99.90;;;;;;5010027;28;20096;-67
2022/01/23 08:24:16;;;;;;;5.70;3.53;;;5.90;99.90;;;;;;5016010;28;20402;-68
2022/01/23 08:26:42;;;;;;;5.90;3.20;;;5.90;99.90;;;;;;5014072;28;20038;-68
2022/01/23 08:29:09;;;;;;;5.57;2.73;;;5.90;99.90;;;;;;5000633;28;20091;-67
2022/01/23 08:31:35;;;;;;;7.25;3.13;;;6.00;99.90;;;;;;5020181;28;20037;-67
2022/01/23 08:34:00;;;;;;;5.10;2.27;;;6.00;99.90;;;;;;5019344;28;20429;-67
2022/01/23 08:36:26;;;;;;;4.30;2.57;;;6.00;99.90;;;;;;5011103;28;20029;-67
2022/01/23 08:38:52;;;;;;;4.33;2.10;;;6.00;99.90;;;;;;5012794;28;20335;-68
2022/01/23 08:43:50;;;;;;;4.10;2.20;;;6.10;99.90;;;;;;5016375;28;20310;-67
2022/01/23 08:46:15;;;;;;;5.43;2.30;;;6.10;99.90;;;;;;5013751;28;20084;-68
2022/01/23 08:48:41;;;;;;;5.43;3.00;;;6.10;99.90;;;;;;5027572;28;20046;-67
2022/01/23 08:51:08;;;;;;;4.63;2.27;;;6.10;99.90;;;;;;5011361;28;20050;-67
2022/01/23 08:53:34;;;;;;;5.35;2.40;;;6.10;99.90;;;;;;5015165;28;20835;-68
2022/01/23 08:56:00;;;;;;;5.33;3.13;;;6.10;99.90;;;;;;5026259;28;20288;-67
2022/01/23 08:58:26;;;;;;;7.97;2.60;;;6.10;99.90;;;;;;5020798;28;20048;-68
2022/01/23 09:00:52;;;;;;;;;;;6.20;99.90;;;;;;5058499;23;20078;-69
2022/01/23 09:03:17;;;;;;;4.97;2.30;;;6.10;99.90;;;;;;4978266;28;19975;-69
2022/01/23 09:05:43;;;;;;;7.40;2.20;;;6.20;99.90;;;;;;4982557;28;20053;-69
2022/01/23 09:08:09;;;;;;;5.43;2.70;;;6.20;99.90;;;;;;4978215;28;20716;-69
2022/01/23 09:10:51;;;;;;;6.00;2.93;;;6.20;99.90;;;;;;4983258;28;20038;-69
2022/01/23 09:13:31;;;;;;;4.88;2.40;;;6.30;99.90;;;;;;4977581;28;20090;-69
2022/01/23 09:15:57;;;;;;;4.85;2.53;;;6.30;99.90;;;;;;4987682;28;20099;-70
2022/01/23 09:18:23;;;;;;;5.32;2.65;;;6.30;99.90;;;;;;4974701;28;20038;-69
2022/01/23 09:20:49;;;;;;;4.57;2.20;;;6.30;99.90;;;;;;4977294;28;20038;-69
2022/01/23 09:23:14;;;;;;;5.87;3.00;;;6.30;99.90;;;;;;4978088;28;20045;-69
2022/01/23 09:25:40;;;;;;;3.90;2.00;;;6.30;99.90;;;;;;4979044;28;20054;-69
2022/01/23 09:28:13;;;;;;;5.77;2.60;;;6.30;99.90;;;;;;4982010;28;20525;-69
2022/01/23 09:30:48;;;;;;;6.18;2.20;;;6.30;99.90;;;;;;4959272;28;20522;-69
2022/01/23 09:33:14;;;;;;;4.57;2.67;;;6.40;99.90;;;;;;4973677;28;20133;-69
2022/01/23 09:35:39;;;;;;;4.28;2.10;;;6.40;99.90;;;;;;4965571;28;20451;-68
2022/01/23 09:38:05;;;;;;;5.90;2.70;;;6.40;99.90;;;;;;4977002;28;20038;-69
2022/01/23 09:40:31;;;;;;;3.87;2.10;;;6.40;99.90;;;;;;4975720;28;20490;-69
2022/01/23 09:43:08;;;;;;;3.90;2.10;;;6.40;99.90;;;;;;4975715;28;20309;-68
2022/01/23 09:45:35;;;;;;;4.53;2.08;;;6.40;99.90;;;;;;4972872;28;20037;-69
2022/01/23 09:48:02;;;;;;;3.42;1.77;;;6.40;99.90;;;;;;4977539;28;20030;-69
2022/01/23 09:50:29;;;;;;;4.05;1.85;;;6.50;99.90;;;;;;4983841;28;20042;-69
2022/01/23 09:52:56;;;;;;;5.18;1.85;;;6.50;99.90;;;;;;4976833;28;20038;-69
2022/01/23 09:55:25;;;;;;;4.53;1.80;;;6.50;99.90;;;;;;4977654;28;20038;-69
2022/01/23 09:57:50;;;;;;;3.78;2.25;;;6.50;99.90;;;;;;4983918;28;20182;-69
2022/01/23 10:00:19;;;;;;;3.40;1.80;;;6.60;99.90;;;;;;4980100;28;20472;-69
2022/01/23 10:02:46;;;;;;;2.95;1.60;;;6.60;99.90;;;;;;4977652;28;20038;-69
2022/01/23 10:05:13;;;;;;;3.88;2.08;;;6.70;99.90;;;;;;4981208;28;20046;-69
2022/01/23 10:07:40;;;;;;;4.93;2.10;;;6.60;99.90;;;;;;4976402;28;20042;-69
2022/01/23 10:10:13;;;;;;;2.70;1.88;;;6.70;99.90;;;;;;4982840;28;20572;-69
2022/01/23 10:12:47;;;;;;;4.80;2.15;;;6.70;99.90;;;;;;4986305;28;20054;-69
2022/01/23 10:15:13;;;;;;;3.47;1.70;;;6.70;99.90;;;;;;4990753;28;20466;-69
2022/01/23 10:17:39;;;;;;;3.07;1.70;;;6.70;99.90;;;;;;4979292;28;20194;-69
2022/01/23 10:20:07;;;;;;;4.05;2.03;;;6.80;99.90;;;;;;4986066;28;20053;-68
2022/01/23 10:22:35;;;;;;;2.83;1.70;;;6.80;99.90;;;;;;4978857;28;20305;-69
2022/01/23 10:25:09;;;;;;;4.63;1.75;;;6.80;99.90;;;;;;4980690;28;20097;-69
2022/01/23 10:28:03;;;;;;;4.18;2.45;;;6.80;99.90;;;;;;4980907;28;20137;-69
2022/01/23 10:30:39;;;;;;;4.97;1.85;;;6.80;99.90;;;;;;4979179;28;20082;-67
2022/01/23 10:33:10;;;;;;;6.13;2.50;;;6.80;99.90;;;;;;4984246;28;20058;-68
2022/01/23 10:36:08;;;;;;;3.03;1.65;;;6.90;99.90;;;;;;4984178;28;20152;-67
2022/01/23 10:38:54;;;;;;;4.22;2.45;;;6.90;99.90;;;;;;4984506;28;20522;-67
2022/01/23 10:49:56;;;;;;;3.85;2.00;;;7.00;99.90;;;;;;4985103;28;20058;-67
2022/01/23 10:52:32;;;;;;;3.38;1.58;;;7.00;99.90;;;;;;4979817;28;20046;-67
2022/01/23 10:54:59;;;;;;;6.47;1.23;;;7.00;99.90;;;;;;4986539;28;20038;-68
2022/01/23 10:57:34;;;;;;;4.38;1.73;;;7.00;99.90;;;;;;4985630;28;20110;-68
2022/01/23 11:00:03;;;;;;;3.50;1.70;;;7.00;99.90;;;;;;4986974;28;20046;-68
2022/01/23 11:02:28;;;;;;;3.33;1.60;;;7.10;99.90;;;;;;4979978;28;20088;-67
2022/01/23 11:05:01;;;;;;;3.83;1.70;;;7.10;99.90;;;;;;4981293;28;20238;-67
2022/01/23 11:07:28;;;;;;;3.60;1.67;;;7.10;99.90;;;;;;4973853;28;20054;-68
2022/01/23 11:10:05;;;;;;;4.45;2.03;;;7.10;99.90;;;;;;4983050;28;20134;-68
2022/01/23 11:17:22;;;;;;;6.78;2.28;;;7.10;99.90;;;;;;4985129;28;20129;-67
2022/01/23 11:18:36;;;;;;;6.07;2.50;;;7.20;99.90;;;;;;4977635;28;20054;-70
2022/01/23 11:21:17;;;;;;;8.40;1.77;;;7.20;99.90;;;;;;4976294;28;20053;-67
2022/01/23 11:23:42;;;;;;;5.00;2.10;;;7.20;99.90;;;;;;4985812;28;20042;-67
2022/01/23 11:26:11;;;;;;;7.37;2.47;;;7.20;99.90;;;;;;4976853;28;20561;-67
2022/01/23 11:28:46;;;;;;;7.78;2.50;;;7.20;99.90;;;;;;4958821;28;20070;-66
2022/01/23 11:31:18;;;;;;;8.02;3.15;;;7.30;99.90;;;;;;4969590;28;20050;-67
2022/01/23 11:33:44;;;;;;;9.63;4.30;;;7.20;99.90;;;;;;4955976;28;20038;-66
2022/01/23 11:36:11;;;;;;;8.02;3.65;;;7.20;99.90;;;;;;4968374;28;20391;-67
2022/01/23 11:38:39;;;;;;;5.35;2.78;;;7.20;99.90;;;;;;4980365;28;20046;-68
2022/01/23 11:54:52;;;;;;;8.77;4.05;;;7.20;99.90;;;;;;4983930;28;20042;-67
2022/01/23 11:57:41;;;;;;;12.70;4.05;;;7.20;99.90;;;;;;4986136;28;20031;-67
2022/01/23 12:00:32;;;;;;;9.60;3.85;;;7.20;99.90;;;;;;4985810;28;20042;-67
2022/01/23 12:03:09;;;;;;;7.07;4.13;;;7.20;99.90;;;;;;4987847;28;20061;-67
2022/01/23 12:05:37;;;;;;;7.78;3.42;;;7.20;99.90;;;;;;4978202;28;20054;-67
2022/01/23 12:08:32;;;;;;;8.25;4.00;;;7.20;99.90;;;;;;4980556;28;20440;-70
2022/01/23 12:11:23;;;;;;;8.82;3.42;;;7.30;99.90;;;;;;4959641;28;20490;-70
2022/01/23 12:17:01;;;;;;;6.82;3.17;;;7.30;99.90;;;;;;4979190;28;20549;-69
2022/01/23 12:19:31;;;;;;;6.00;2.95;;;7.30;99.90;;;;;;4981164;28;20046;-68
2022/01/23 12:22:17;;;;;;;8.20;3.38;;;7.30;99.90;;;;;;4982610;28;20046;-66
2022/01/23 12:24:51;;;;;;;4.65;2.45;;;7.40;99.90;;;;;;4982721;28;20070;-65
2022/01/23 12:27:22;;;;;;;7.25;3.08;;;7.40;99.90;;;;;;4982175;28;20053;-67
2022/01/23 12:29:47;;;;;;;6.97;2.88;;;7.40;99.90;;;;;;4982202;28;20050;-66
2022/01/23 12:32:29;;;;;;;7.20;2.63;;;7.40;99.90;;;;;;4984790;28;20075;-66
2022/01/23 12:35:00;;;;;;;6.63;2.42;;;7.40;99.90;;;;;;4982009;28;20034;-72
2022/01/23 12:37:46;;;;;;;5.78;2.80;;;7.30;99.90;;;;;;4983313;28;20117;-66
2022/01/23 12:40:28;;;;;;;5.88;2.45;;;7.30;99.90;;;;;;4982937;28;20034;-66
2022/01/23 12:43:17;;;;;;;3.78;2.03;;;7.40;99.90;;;;;;4984934;28;20514;-66
2022/01/23 12:45:46;;;;;;;5.65;2.60;;;7.40;99.90;;;;;;4976815;28;20132;-66
2022/01/23 12:48:28;;;;;;;7.38;2.75;;;7.40;99.90;;;;;;4977386;28;20104;-69
2022/01/23 12:50:58;;;;;;;5.05;2.53;;;7.40;99.90;;;;;;4981063;28;20057;-66
2022/01/23 12:53:57;;;;;;;7.05;2.83;;;7.40;99.90;;;;;;4981070;28;20030;-66
2022/01/23 12:56:42;;;;;;;6.78;2.47;;;7.40;99.90;;;;;;4979472;28;20042;-66
2022/01/23 12:59:11;;;;;;;7.55;2.55;;;7.40;99.90;;;;;;4979415;28;20141;-67
2022/01/23 13:01:41;;;;;;;4.75;2.50;;;7.40;99.90;;;;;;4984047;28;20038;-67
2022/01/23 13:04:08;;;;;;;5.80;2.50;;;7.40;99.90;;;;;;4974276;28;20042;-67
2022/01/23 13:06:49;;;;;;;6.63;3.13;;;7.40;99.90;;;;;;4977427;28;20068;-67
2022/01/23 13:09:24;;;;;;;10.23;4.18;;;7.50;99.90;;;;;;4963388;28;20455;-67
2022/01/23 13:11:55;;;;;;;6.97;2.58;;;7.50;99.90;;;;;;4981161;28;20284;-67
2022/01/23 13:14:27;;;;;;;8.80;3.70;;;7.50;99.90;;;;;;4990589;28;20084;-66
2022/01/23 13:26:22;;;;;;;8.38;4.10;;;7.50;99.90;;;;;;4988566;28;20085;-65
2022/01/23 13:28:54;;;;;;;7.05;3.55;;;7.50;99.90;;;;;;4984980;28;20134;-68
2022/01/23 13:30:55;;;;;;;5.90;2.83;;;7.50;99.90;;;;;;4983692;28;20195;-67
2022/01/23 13:33:25;;;;;;;9.18;3.13;;;7.50;99.90;;;;;;4988759;28;20038;-66
2022/01/23 13:35:53;;;;;;;8.15;3.10;;;7.40;99.90;;;;;;4985067;28;20352;-66
2022/01/23 13:38:21;;;;;;;7.07;3.17;;;7.40;99.90;;;;;;4984656;28;20221;-66
2022/01/23 13:40:57;;;;;;;6.40;2.88;;;7.50;99.90;;;;;;4983082;28;20582;-67
2022/01/23 13:49:50;;;;;;;6.95;2.60;;;7.50;99.90;;;;;;4986386;28;20213;-66
2022/01/23 13:59:43;;;;;;;8.90;3.33;;;7.40;99.90;;;;;;4980431;28;20137;-68
2022/01/23 14:02:32;;;;;;;7.72;3.72;;;7.40;99.90;;;;;;4985706;28;20038;-66
2022/01/23 14:05:19;;;;;;;4.68;2.78;;;7.40;99.90;;;;;;4997913;28;20121;-66
2022/01/23 14:07:46;;;;;;;6.55;3.40;;;7.50;99.90;;;;;;4985785;28;20462;-66
2022/01/23 14:10:25;;;;;;;5.03;2.90;;;7.40;99.90;;;;;;4983613;28;20390;-66
2022/01/23 14:12:53;;;;;;;5.97;2.53;;;7.40;99.90;;;;;;4982163;28;20085;-66
2022/01/23 14:15:21;;;;;;;5.15;2.38;;;7.40;99.90;;;;;;4984953;28;20053;-66
2022/01/23 14:18:00;;;;;;;8.13;4.13;;;7.30;99.90;;;;;;4988545;28;20115;-66
2022/01/23 14:20:26;;;;;;;5.38;2.90;;;7.30;99.90;;;;;;4983444;28;20045;-67
2022/01/23 14:22:53;;;;;;;5.45;2.78;;;7.30;99.90;;;;;;4982194;28;20105;-68
2022/01/23 14:25:23;;;;;;;;;;;7.30;99.90;;;;;;4983734;28;20026;-68
2022/01/23 14:28:01;;;;;;;4.45;2.08;;;7.30;99.90;;;;;;4987073;28;19965;-67
2022/01/23 14:30:29;;;;;;;6.63;2.90;;;7.30;99.90;;;;;;4983755;28;20097;-67
2022/01/23 14:33:03;;;;;;;4.72;2.70;;;7.30;99.90;;;;;;4982875;28;20057;-67
2022/01/23 14:35:31;;;;;;;6.28;2.95;;;7.30;99.90;;;;;;4987266;28;20037;-67
2022/01/23 14:38:17;;;;;;;6.65;3.00;;;7.30;99.90;;;;;;4988666;28;20034;-66
2022/01/23 14:40:52;;;;;;;6.38;3.20;;;7.30;99.90;;;;;;4980475;28;20045;-69
2022/01/23 14:43:19;;;;;;;5.05;2.92;;;7.30;99.90;;;;;;4979402;28;20054;-69
2022/01/23 14:45:47;;;;;;;5.38;3.30;;;7.30;99.90;;;;;;4986793;28;20403;-68
2022/01/23 14:48:15;;;;;;;6.75;3.78;;;7.30;99.90;;;;;;4990431;28;20104;-69
2022/01/23 14:50:43;;;;;;;9.40;3.35;;;7.30;99.90;;;;;;4971070;28;20483;-68
2022/01/23 14:53:10;;;;;;;9.30;3.35;;;7.30;99.90;;;;;;4981403;28;20129;-67
2022/01/23 14:55:38;;;;;;;6.50;3.47;;;7.20;99.90;;;;;;4982787;28;20046;-67
2022/01/23 14:58:04;;;;;;;8.93;7.82;;;7.20;99.90;;;;;;4977776;28;20276;-67
2022/01/23 15:00:32;;;;;;;8.00;4.80;;;7.20;99.90;;;;;;4995817;23;20049;-65
2022/01/23 15:03:02;;;;;;;6.88;4.10;;;7.20;99.90;;;;;;4982944;28;20069;-65
2022/01/23 15:05:33;;;;;;;10.88;8.88;;;7.20;99.90;;;;;;4971597;28;20042;-66
2022/01/23 15:07:59;;;;;;;10.15;8.93;;;7.20;99.90;;;;;;4959193;28;20515;-66
2022/01/23 15:10:26;;;;;;;8.50;5.55;;;7.20;99.90;;;;;;4971138;28;20037;-65
2022/01/23 15:12:52;;;;;;;7.75;5.07;;;7.20;99.90;;;;;;4967697;28;20034;-66
2022/01/23 15:15:17;;;;;;;8.57;5.93;;;7.10;99.90;;;;;;4974618;28;20280;-66
2022/01/23 15:17:43;;;;;;;11.33;8.30;;;7.20;99.90;;;;;;4965810;28;20402;-66
2022/01/23 15:20:09;;;;;;;7.07;4.23;;;7.10;99.90;;;;;;4967689;28;20472;-65
2022/01/23 15:22:35;;;;;;;8.38;4.30;;;7.10;99.90;;;;;;4967753;28;20051;-65
2022/01/23 15:25:02;;;;;;;6.83;3.60;;;7.10;99.90;;;;;;4966962;28;20031;-65
2022/01/23 15:27:27;;;;;;;;;;;7.10;99.90;;;;;;4962572;28;20054;-66
2022/01/23 15:29:53;;;;;;;5.28;3.13;;;7.10;99.90;;;;;;4965447;28;19922;-66
2022/01/23 15:32:18;;;;;;;9.47;3.93;;;7.10;99.90;;;;;;4966256;28;20170;-66
2022/01/23 15:34:44;;;;;;;5.77;2.87;;;7.10;99.90;;;;;;4959831;28;20038;-66
2022/01/23 15:37:13;;;;;;;8.13;3.30;;;7.10;99.90;;;;;;4948633;28;20062;-65
2022/01/23 15:39:39;;;;;;;9.23;3.10;;;7.10;99.90;;;;;;4965320;28;20051;-66
2022/01/23 15:42:05;;;;;;;8.45;4.97;;;7.10;99.90;;;;;;4965090;28;20061;-66
2022/01/23 15:44:31;;;;;;;7.28;3.03;;;7.00;99.90;;;;;;4966666;28;20054;-67
2022/01/23 15:46:57;;;;;;;9.33;2.97;;;7.00;99.90;;;;;;4967112;28;20449;-66
2022/01/23 15:49:22;;;;;;;5.65;2.95;;;7.00;99.90;;;;;;4963686;28;20035;-65
2022/01/23 15:51:48;;;;;;;6.30;3.40;;;7.00;99.90;;;;;;4961421;28;20416;-66
2022/01/23 15:54:21;;;;;;;6.63;2.90;;;7.00;99.90;;;;;;4971184;28;20038;-66
2022/01/23 15:56:48;;;;;;;13.88;7.43;;;7.00;99.90;;;;;;4962508;28;20065;-66
2022/01/23 15:59:18;;;;;;;14.82;6.60;;;7.00;99.90;;;;;;4971717;28;20054;-66
2022/01/23 16:01:46;;;;;;;9.95;5.63;;;7.00;99.90;;;;;;4962408;28;20042;-66
2022/01/23 16:04:13;;;;;;;8.25;3.58;;;7.00;99.90;;;;;;4965635;28;20038;-66
2022/01/23 16:06:38;;;;;;;7.43;3.33;;;7.00;99.90;;;;;;4960229;28;20047;-66
2022/01/23 16:09:04;;;;;;;8.30;3.73;;;6.90;99.90;;;;;;4967031;28;20050;-66
2022/01/23 16:11:30;;;;;;;9.80;4.33;;;6.90;99.90;;;;;;4973543;28;20149;-65
2022/01/23 16:13:55;;;;;;;8.63;3.97;;;6.90;99.90;;;;;;4965806;28;20042;-66
2022/01/23 16:16:21;;;;;;;7.43;3.60;;;6.90;99.90;;;;;;4973783;28;20043;-66
2022/01/23 16:18:46;;;;;;;8.23;3.70;;;6.90;99.90;;;;;;4963163;28;20270;-66
2022/01/23 16:21:12;;;;;;;9.63;4.27;;;6.90;99.90;;;;;;4976365;28;20046;-65
2022/01/23 16:23:38;;;;;;;10.10;4.30;;;6.90;99.90;;;;;;4968542;28;20050;-66
2022/01/23 16:26:04;;;;;;;9.80;4.27;;;6.80;99.90;;;;;;4973045;28;20462;-66
2022/01/23 16:28:30;;;;;;;8.90;4.15;;;6.80;99.90;;;;;;4966205;28;20074;-66
2022/01/23 16:30:58;;;;;;;11.97;3.77;;;6.80;99.90;;;;;;4972184;28;20042;-65